sensor_id;sensor_type;location;lat;lon;timestamp;temperature;humidity
2389;DHT22;1205;47.984;7.668;2022-10-01T00:00:51;9.40;99.90
2389;DHT22;1205;47.984;7.668;2022-10-01T00:03:18;9.40;99.90
2389;DHT22;1205;47.984;7.668;2022-10-01T00:05:44;9.50;99.90
2389;DHT22;1205;47.984;7.668;2022-10-01T00:08:10;9.60;99.90
2389;DHT22;1205;47.984;7.668;2022-10-01T00:10:40;9.60;99.90
2389;DHT22;1205;47.984;7.668;2022-10-01T00:13:06;9.70;99.90
2389;DHT22;1205;47.984;7.668;2022-10-01T00:15:32;9.70;99.90
2389;DHT22;1205;47.984;7.668;2022-10-01T00:17:57;9.70;99.90
2389;DHT22;1205;47.984;7.668;2022-10-01T00:20:23;9.80;99.90
2389;DHT22;1205;47.984;7.668;2022-10-01T00:22:48;9.80;99.90
2389;DHT22;1205;47.984;7.668;2022-10-01T00:25:14;9.80;99.90
2389;DHT22;1205;47.984;7.668;2022-10-01T00:27:43;9.90;99.90
2389;DHT22;1205;47.984;7.668;2022-10-01T00:30:10;9.90;99.90
2389;DHT22;1205;47.984;7.668;2022-10-01T00:32:36;10.00;99.90
2389;DHT22;1205;47.984;7.668;2022-10-01T00:35:03;9.90;99.90
2389;DHT22;1205;47.984;7.668;2022-10-01T00:37:29;10.00;99.90
2389;DHT22;1205;47.984;7.668;2022-10-01T00:39:55;10.00;99.90
2389;DHT22;1205;47.984;7.668;2022-10-01T00:42:23;10.00;99.90
2389;DHT22;1205;47.984;7.668;2022-10-01T00:44:49;10.00;99.90
2389;DHT22;1205;47.984;7.668;2022-10-01T00:50:08;10.10;99.90
2389;DHT22;1205;47.984;7.668;2022-10-01T00:52:37;10.10;99.90
2389;DHT22;1205;47.984;7.668;2022-10-01T00:55:08;10.00;99.90
2389;DHT22;1205;47.984;7.668;2022-10-01T00:57:36;10.10;99.90
2389;DHT22;1205;47.984;7.668;2022-10-01T01:00:06;10.10;99.90
2389;DHT22;1205;47.984;7.668;2022-10-01T01:02:33;10.10;99.90
2389;DHT22;1205;47.984;7.668;2022-10-01T01:04:58;10.10;99.90
2389;DHT22;1205;47.984;7.668;2022-10-01T01:07:25;10.10;99.90
2389;DHT22;1205;47.984;7.668;2022-10-01T01:09:52;10.10;99.90
2389;DHT22;1205;47.984;7.668;2022-10-01T01:23:09;10.20;99.90
2389;DHT22;1205;47.984;7.668;2022-10-01T01:25:52;10.20;99.90
2389;DHT22;1205;47.984;7.668;2022-10-01T01:28:41;10.20;99.90
2389;DHT22;1205;47.984;7.668;2022-10-01T01:31:14;10.20;99.90
2389;DHT22;1205;47.984;7.668;2022-10-01T01:33:45;10.30;99.90
2389;DHT22;1205;47.984;7.668;2022-10-01T01:36:14;10.30;99.90
2389;DHT22;1205;47.984;7.668;2022-10-01T01:38:48;10.30;99.90
2389;DHT22;1205;47.984;7.668;2022-10-01T01:41:17;10.30;99.90
2389;DHT22;1205;47.984;7.668;2022-10-01T01:43:47;10.30;99.90
2389;DHT22;1205;47.984;7.668;2022-10-01T01:46:16;10.40;99.90
2389;DHT22;1205;47.984;7.668;2022-10-01T01:48:44;10.40;99.90
2389;DHT22;1205;47.984;7.668;2022-10-01T01:51:31;10.40;99.90
2389;DHT22;1205;47.984;7.668;2022-10-01T01:53:58;10.40;99.90
2389;DHT22;1205;47.984;7.668;2022-10-01T01:56:24;10.50;99.90
2389;DHT22;1205;47.984;7.668;2022-10-01T01:58:51;10.50;99.90
2389;DHT22;1205;47.984;7.668;2022-10-01T02:01:31;10.50;99.90
2389;DHT22;1205;47.984;7.668;2022-10-01T02:03:57;10.50;99.90
2389;DHT22;1205;47.984;7.668;2022-10-01T02:06:29;10.50;99.90
2389;DHT22;1205;47.984;7.668;2022-10-01T02:12:03;10.60;99.90
2389;DHT22;1205;47.984;7.668;2022-10-01T02:14:40;10.60;99.90
2389;DHT22;1205;47.984;7.668;2022-10-01T02:17:20;10.60;99.90
2389;DHT22;1205;47.984;7.668;2022-10-01T02:20:07;10.70;99.90
2389;DHT22;1205;47.984;7.668;2022-10-01T02:22:46;10.60;99.90
2389;DHT22;1205;47.984;7.668;2022-10-01T02:25:16;10.70;99.90
2389;DHT22;1205;47.984;7.668;2022-10-01T02:27:51;10.70;99.90
2389;DHT22;1205;47.984;7.668;2022-10-01T02:30:20;10.70;99.90
2389;DHT22;1205;47.984;7.668;2022-10-01T02:32:48;10.80;99.90
2389;DHT22;1205;47.984;7.668;2022-10-01T02:35:16;10.70;99.90
2389;DHT22;1205;47.984;7.668;2022-10-01T02:37:46;10.80;99.90
2389;DHT22;1205;47.984;7.668;2022-10-01T02:40:16;10.80;99.90
2389;DHT22;1205;47.984;7.668;2022-10-01T02:42:47;10.80;99.90
2389;DHT22;1205;47.984;7.668;2022-10-01T02:45:15;10.80;99.90
2389;DHT22;1205;47.984;7.668;2022-10-01T02:47:46;10.80;99.90
2389;DHT22;1205;47.984;7.668;2022-10-01T02:50:13;10.80;99.90
2389;DHT22;1205;47.984;7.668;2022-10-01T02:52:52;10.90;99.90
2389;DHT22;1205;47.984;7.668;2022-10-01T02:55:27;10.90;99.90
2389;DHT22;1205;47.984;7.668;2022-10-01T02:57:55;10.90;99.90
2389;DHT22;1205;47.984;7.668;2022-10-01T03:00:21;10.90;99.90
2389;DHT22;1205;47.984;7.668;2022-10-01T03:02:47;11.00;99.90
2389;DHT22;1205;47.984;7.668;2022-10-01T03:05:14;11.00;99.90
2389;DHT22;1205;47.984;7.668;2022-10-01T03:07:40;11.00;99.90
2389;DHT22;1205;47.984;7.668;2022-10-01T03:10:07;11.00;99.90
2389;DHT22;1205;47.984;7.668;2022-10-01T03:12:34;11.00;99.90
2389;DHT22;1205;47.984;7.668;2022-10-01T03:15:00;11.00;99.90
2389;DHT22;1205;47.984;7.668;2022-10-01T03:17:26;11.00;99.90
2389;DHT22;1205;47.984;7.668;2022-10-01T03:19:51;11.00;99.90
2389;DHT22;1205;47.984;7.668;2022-10-01T03:22:20;11.10;99.90
2389;DHT22;1205;47.984;7.668;2022-10-01T03:24:50;11.00;99.90
2389;DHT22;1205;47.984;7.668;2022-10-01T03:27:16;11.00;99.90
2389;DHT22;1205;47.984;7.668;2022-10-01T03:29:43;11.10;99.90
2389;DHT22;1205;47.984;7.668;2022-10-01T03:32:09;11.00;99.90
2389;DHT22;1205;47.984;7.668;2022-10-01T03:34:34;11.10;99.90
2389;DHT22;1205;47.984;7.668;2022-10-01T03:37:00;11.10;99.90
2389;DHT22;1205;47.984;7.668;2022-10-01T03:39:25;11.10;99.90
2389;DHT22;1205;47.984;7.668;2022-10-01T03:41:51;11.10;99.90
2389;DHT22;1205;47.984;7.668;2022-10-01T03:44:17;11.10;99.90
2389;DHT22;1205;47.984;7.668;2022-10-01T03:46:43;11.10;99.90
2389;DHT22;1205;47.984;7.668;2022-10-01T03:49:08;11.20;99.90
2389;DHT22;1205;47.984;7.668;2022-10-01T03:51:35;11.20;99.90
2389;DHT22;1205;47.984;7.668;2022-10-01T03:54:02;11.20;99.90
2389;DHT22;1205;47.984;7.668;2022-10-01T03:56:28;11.20;99.90
2389;DHT22;1205;47.984;7.668;2022-10-01T03:58:54;11.20;99.90
2389;DHT22;1205;47.984;7.668;2022-10-01T04:01:19;11.20;99.90
2389;DHT22;1205;47.984;7.668;2022-10-01T04:03:45;11.30;99.90
2389;DHT22;1205;47.984;7.668;2022-10-01T04:06:11;11.30;99.90
2389;DHT22;1205;47.984;7.668;2022-10-01T04:08:37;11.30;99.90
2389;DHT22;1205;47.984;7.668;2022-10-01T04:11:04;11.30;99.90
2389;DHT22;1205;47.984;7.668;2022-10-01T04:13:30;11.30;99.90
2389;DHT22;1205;47.984;7.668;2022-10-01T04:15:56;11.30;99.90
2389;DHT22;1205;47.984;7.668;2022-10-01T04:18:21;11.30;99.90
2389;DHT22;1205;47.984;7.668;2022-10-01T04:20:47;11.30;99.90
2389;DHT22;1205;47.984;7.668;2022-10-01T04:23:13;11.30;99.90
2389;DHT22;1205;47.984;7.668;2022-10-01T04:25:39;11.30;99.90
2389;DHT22;1205;47.984;7.668;2022-10-01T04:28:07;11.30;99.90
2389;DHT22;1205;47.984;7.668;2022-10-01T04:30:37;11.40;99.90
2389;DHT22;1205;47.984;7.668;2022-10-01T04:33:03;11.40;99.90
2389;DHT22;1205;47.984;7.668;2022-10-01T04:35:29;11.30;99.90
2389;DHT22;1205;47.984;7.668;2022-10-01T04:38:00;11.30;99.90
2389;DHT22;1205;47.984;7.668;2022-10-01T04:40:28;11.40;99.90
2389;DHT22;1205;47.984;7.668;2022-10-01T04:42:54;11.30;99.90
2389;DHT22;1205;47.984;7.668;2022-10-01T04:45:19;11.30;99.90
2389;DHT22;1205;47.984;7.668;2022-10-01T04:47:53;11.20;99.90
2389;DHT22;1205;47.984;7.668;2022-10-01T04:50:20;11.10;99.90
2389;DHT22;1205;47.984;7.668;2022-10-01T04:52:46;11.10;99.90
2389;DHT22;1205;47.984;7.668;2022-10-01T04:55:13;11.10;99.90
2389;DHT22;1205;47.984;7.668;2022-10-01T04:57:39;11.20;99.90
2389;DHT22;1205;47.984;7.668;2022-10-01T05:00:07;11.20;99.90
2389;DHT22;1205;47.984;7.668;2022-10-01T05:02:33;11.20;99.90
2389;DHT22;1205;47.984;7.668;2022-10-01T05:05:03;11.30;99.90
2389;DHT22;1205;47.984;7.668;2022-10-01T05:07:30;11.30;99.90
2389;DHT22;1205;47.984;7.668;2022-10-01T05:09:56;11.40;99.90
2389;DHT22;1205;47.984;7.668;2022-10-01T05:12:23;11.40;99.90
2389;DHT22;1205;47.984;7.668;2022-10-01T05:14:53;11.40;99.90
2389;DHT22;1205;47.984;7.668;2022-10-01T05:17:19;11.40;99.90
2389;DHT22;1205;47.984;7.668;2022-10-01T05:19:45;11.40;99.90
2389;DHT22;1205;47.984;7.668;2022-10-01T05:22:11;11.40;99.90
2389;DHT22;1205;47.984;7.668;2022-10-01T05:24:38;11.40;99.90
2389;DHT22;1205;47.984;7.668;2022-10-01T05:27:04;11.40;99.90
2389;DHT22;1205;47.984;7.668;2022-10-01T05:29:31;11.40;99.90
2389;DHT22;1205;47.984;7.668;2022-10-01T05:31:57;11.30;99.90
2389;DHT22;1205;47.984;7.668;2022-10-01T05:34:23;11.40;99.90
2389;DHT22;1205;47.984;7.668;2022-10-01T05:36:48;11.40;99.90
2389;DHT22;1205;47.984;7.668;2022-10-01T05:39:14;11.40;99.90
2389;DHT22;1205;47.984;7.668;2022-10-01T05:41:40;11.40;99.90
2389;DHT22;1205;47.984;7.668;2022-10-01T05:44:06;11.60;99.90
2389;DHT22;1205;47.984;7.668;2022-10-01T05:46:32;11.80;99.90
2389;DHT22;1205;47.984;7.668;2022-10-01T05:48:57;12.20;99.90
2389;DHT22;1205;47.984;7.668;2022-10-01T05:51:23;12.30;99.90
2389;DHT22;1205;47.984;7.668;2022-10-01T05:53:49;12.10;99.90
2389;DHT22;1205;47.984;7.668;2022-10-01T05:56:15;11.80;99.90
2389;DHT22;1205;47.984;7.668;2022-10-01T05:58:41;11.60;99.90
2389;DHT22;1205;47.984;7.668;2022-10-01T06:01:06;11.50;99.90
2389;DHT22;1205;47.984;7.668;2022-10-01T06:03:32;11.40;99.90
2389;DHT22;1205;47.984;7.668;2022-10-01T06:05:57;11.40;99.90
2389;DHT22;1205;47.984;7.668;2022-10-01T06:08:23;11.30;99.90
2389;DHT22;1205;47.984;7.668;2022-10-01T06:10:49;11.30;99.90
2389;DHT22;1205;47.984;7.668;2022-10-01T06:13:14;11.20;99.90
2389;DHT22;1205;47.984;7.668;2022-10-01T06:15:43;11.20;99.90
2389;DHT22;1205;47.984;7.668;2022-10-01T06:18:11;11.20;99.90
2389;DHT22;1205;47.984;7.668;2022-10-01T06:20:38;11.20;99.90
2389;DHT22;1205;47.984;7.668;2022-10-01T06:23:05;11.20;99.90
2389;DHT22;1205;47.984;7.668;2022-10-01T06:25:32;11.10;99.90
2389;DHT22;1205;47.984;7.668;2022-10-01T06:27:59;11.20;99.90
2389;DHT22;1205;47.984;7.668;2022-10-01T06:30:29;11.20;99.90
2389;DHT22;1205;47.984;7.668;2022-10-01T06:33:09;11.20;99.90
2389;DHT22;1205;47.984;7.668;2022-10-01T06:35:39;11.20;99.90
2389;DHT22;1205;47.984;7.668;2022-10-01T06:38:05;11.20;99.90
2389;DHT22;1205;47.984;7.668;2022-10-01T06:40:31;11.30;99.90
2389;DHT22;1205;47.984;7.668;2022-10-01T06:42:57;11.20;99.90
2389;DHT22;1205;47.984;7.668;2022-10-01T06:45:27;11.30;99.90
2389;DHT22;1205;47.984;7.668;2022-10-01T06:47:58;11.20;99.90
2389;DHT22;1205;47.984;7.668;2022-10-01T06:50:27;11.30;99.90
2389;DHT22;1205;47.984;7.668;2022-10-01T06:52:53;11.20;99.90
2389;DHT22;1205;47.984;7.668;2022-10-01T06:55:28;11.30;99.90
2389;DHT22;1205;47.984;7.668;2022-10-01T06:58:00;11.30;99.90
2389;DHT22;1205;47.984;7.668;2022-10-01T07:00:28;11.20;99.90
2389;DHT22;1205;47.984;7.668;2022-10-01T07:02:54;11.30;99.90
2389;DHT22;1205;47.984;7.668;2022-10-01T07:05:20;11.20;99.90
2389;DHT22;1205;47.984;7.668;2022-10-01T07:07:46;11.40;99.90
2389;DHT22;1205;47.984;7.668;2022-10-01T07:10:14;11.30;99.90
2389;DHT22;1205;47.984;7.668;2022-10-01T07:12:39;11.30;99.90
2389;DHT22;1205;47.984;7.668;2022-10-01T07:15:06;11.40;99.90
2389;DHT22;1205;47.984;7.668;2022-10-01T07:17:32;11.40;99.90
2389;DHT22;1205;47.984;7.668;2022-10-01T07:19:58;11.40;99.90
2389;DHT22;1205;47.984;7.668;2022-10-01T07:22:26;11.50;99.90
2389;DHT22;1205;47.984;7.668;2022-10-01T07:24:51;11.50;99.90
2389;DHT22;1205;47.984;7.668;2022-10-01T07:27:18;11.50;99.90
2389;DHT22;1205;47.984;7.668;2022-10-01T07:29:44;11.60;99.90
2389;DHT22;1205;47.984;7.668;2022-10-01T07:32:09;11.60;99.90
2389;DHT22;1205;47.984;7.668;2022-10-01T07:34:36;11.60;99.90
2389;DHT22;1205;47.984;7.668;2022-10-01T07:37:04;11.60;99.90
2389;DHT22;1205;47.984;7.668;2022-10-01T07:39:30;11.70;99.90
2389;DHT22;1205;47.984;7.668;2022-10-01T07:41:56;11.60;99.90
2389;DHT22;1205;47.984;7.668;2022-10-01T07:44:23;11.60;99.90
2389;DHT22;1205;47.984;7.668;2022-10-01T07:46:48;11.60;99.90
2389;DHT22;1205;47.984;7.668;2022-10-01T07:49:14;11.60;99.90
2389;DHT22;1205;47.984;7.668;2022-10-01T07:51:41;11.70;99.90
2389;DHT22;1205;47.984;7.668;2022-10-01T07:54:08;11.70;99.90
2389;DHT22;1205;47.984;7.668;2022-10-01T07:56:34;11.70;99.90
2389;DHT22;1205;47.984;7.668;2022-10-01T07:59:00;11.80;99.90
2389;DHT22;1205;47.984;7.668;2022-10-01T08:01:27;11.80;99.90
2389;DHT22;1205;47.984;7.668;2022-10-01T08:03:53;11.80;99.90
2389;DHT22;1205;47.984;7.668;2022-10-01T08:06:19;11.80;99.90
2389;DHT22;1205;47.984;7.668;2022-10-01T08:08:45;11.70;99.90
2389;DHT22;1205;47.984;7.668;2022-10-01T08:11:11;11.70;99.90
2389;DHT22;1205;47.984;7.668;2022-10-01T08:13:39;11.80;99.90
2389;DHT22;1205;47.984;7.668;2022-10-01T08:16:07;11.80;99.90
2389;DHT22;1205;47.984;7.668;2022-10-01T08:18:34;11.90;99.90
2389;DHT22;1205;47.984;7.668;2022-10-01T08:21:00;11.90;99.90
2389;DHT22;1205;47.984;7.668;2022-10-01T08:23:27;11.90;99.90
2389;DHT22;1205;47.984;7.668;2022-10-01T08:25:58;12.00;99.90
2389;DHT22;1205;47.984;7.668;2022-10-01T08:28:24;12.00;99.90
2389;DHT22;1205;47.984;7.668;2022-10-01T08:30:50;12.00;99.90
2389;DHT22;1205;47.984;7.668;2022-10-01T08:33:16;12.00;99.90
2389;DHT22;1205;47.984;7.668;2022-10-01T08:35:41;12.10;99.90
2389;DHT22;1205;47.984;7.668;2022-10-01T08:38:08;12.10;99.90
2389;DHT22;1205;47.984;7.668;2022-10-01T08:40:43;12.20;99.90
2389;DHT22;1205;47.984;7.668;2022-10-01T08:43:32;12.20;99.90
2389;DHT22;1205;47.984;7.668;2022-10-01T08:46:13;12.30;99.90
2389;DHT22;1205;47.984;7.668;2022-10-01T08:54:30;12.30;99.90
2389;DHT22;1205;47.984;7.668;2022-10-01T08:57:00;12.40;99.90
2389;DHT22;1205;47.984;7.668;2022-10-01T08:59:43;12.50;99.90
2389;DHT22;1205;47.984;7.668;2022-10-01T09:04:42;12.60;99.90
2389;DHT22;1205;47.984;7.668;2022-10-01T09:10:03;12.70;99.90
2389;DHT22;1205;47.984;7.668;2022-10-01T09:12:32;12.70;99.90
2389;DHT22;1205;47.984;7.668;2022-10-01T09:18:03;12.70;99.90
2389;DHT22;1205;47.984;7.668;2022-10-01T09:20:52;12.80;99.90
2389;DHT22;1205;47.984;7.668;2022-10-01T09:23:25;12.80;99.90
2389;DHT22;1205;47.984;7.668;2022-10-01T09:25:51;12.80;99.90
2389;DHT22;1205;47.984;7.668;2022-10-01T09:28:27;12.90;99.90
2389;DHT22;1205;47.984;7.668;2022-10-01T09:33:28;12.80;99.90
2389;DHT22;1205;47.984;7.668;2022-10-01T09:38:44;12.80;99.90
2389;DHT22;1205;47.984;7.668;2022-10-01T09:41:12;12.80;99.90
2389;DHT22;1205;47.984;7.668;2022-10-01T09:43:41;12.90;99.90
2389;DHT22;1205;47.984;7.668;2022-10-01T09:46:10;12.90;99.90
2389;DHT22;1205;47.984;7.668;2022-10-01T09:51:13;12.80;99.90
2389;DHT22;1205;47.984;7.668;2022-10-01T09:56:34;12.80;99.90
2389;DHT22;1205;47.984;7.668;2022-10-01T09:59:07;12.80;99.90
2389;DHT22;1205;47.984;7.668;2022-10-01T10:04:08;13.00;99.90
2389;DHT22;1205;47.984;7.668;2022-10-01T10:06:34;13.00;99.90
2389;DHT22;1205;47.984;7.668;2022-10-01T10:09:00;12.90;99.90
2389;DHT22;1205;47.984;7.668;2022-10-01T10:11:28;13.00;99.90
2389;DHT22;1205;47.984;7.668;2022-10-01T10:14:00;13.10;99.90
2389;DHT22;1205;47.984;7.668;2022-10-01T10:16:29;13.10;99.90
2389;DHT22;1205;47.984;7.668;2022-10-01T10:18:59;13.20;99.90
2389;DHT22;1205;47.984;7.668;2022-10-01T10:21:29;13.40;99.90
2389;DHT22;1205;47.984;7.668;2022-10-01T10:23:57;13.30;99.90
2389;DHT22;1205;47.984;7.668;2022-10-01T10:26:30;13.30;99.90
2389;DHT22;1205;47.984;7.668;2022-10-01T10:28:57;13.50;99.90
2389;DHT22;1205;47.984;7.668;2022-10-01T10:31:25;13.40;99.90
2389;DHT22;1205;47.984;7.668;2022-10-01T10:34:04;13.50;99.90
2389;DHT22;1205;47.984;7.668;2022-10-01T10:36:33;13.60;99.90
2389;DHT22;1205;47.984;7.668;2022-10-01T10:38:59;13.60;99.90
2389;DHT22;1205;47.984;7.668;2022-10-01T10:41:27;13.70;99.90
2389;DHT22;1205;47.984;7.668;2022-10-01T10:44:00;13.70;99.90
2389;DHT22;1205;47.984;7.668;2022-10-01T10:46:34;13.90;99.90
2389;DHT22;1205;47.984;7.668;2022-10-01T10:49:20;13.80;99.90
2389;DHT22;1205;47.984;7.668;2022-10-01T10:51:52;13.70;99.90
2389;DHT22;1205;47.984;7.668;2022-10-01T10:54:32;13.80;99.90
2389;DHT22;1205;47.984;7.668;2022-10-01T10:57:22;13.90;99.90
2389;DHT22;1205;47.984;7.668;2022-10-01T10:59:59;13.80;99.90
2389;DHT22;1205;47.984;7.668;2022-10-01T11:02:26;13.90;99.90
2389;DHT22;1205;47.984;7.668;2022-10-01T11:04:56;14.10;99.90
2389;DHT22;1205;47.984;7.668;2022-10-01T11:07:23;14.00;99.90
2389;DHT22;1205;47.984;7.668;2022-10-01T11:24:24;14.00;99.90
2389;DHT22;1205;47.984;7.668;2022-10-01T11:27:03;13.90;99.90
2389;DHT22;1205;47.984;7.668;2022-10-01T11:30:00;14.00;99.90
2389;DHT22;1205;47.984;7.668;2022-10-01T11:32:37;14.00;99.90
2389;DHT22;1205;47.984;7.668;2022-10-01T11:35:35;14.00;99.90
2389;DHT22;1205;47.984;7.668;2022-10-01T11:40:42;14.00;99.90
2389;DHT22;1205;47.984;7.668;2022-10-01T11:43:26;13.90;99.90
2389;DHT22;1205;47.984;7.668;2022-10-01T11:45:58;14.00;99.90
2389;DHT22;1205;47.984;7.668;2022-10-01T11:48:29;14.10;99.90
2389;DHT22;1205;47.984;7.668;2022-10-01T11:51:02;14.00;99.90
2389;DHT22;1205;47.984;7.668;2022-10-01T11:53:32;14.00;99.90
2389;DHT22;1205;47.984;7.668;2022-10-01T11:56:06;14.00;99.90
2389;DHT22;1205;47.984;7.668;2022-10-01T11:59:16;14.30;99.90
2389;DHT22;1205;47.984;7.668;2022-10-01T12:07:05;14.10;99.90
2389;DHT22;1205;47.984;7.668;2022-10-01T12:12:19;14.10;99.90
2389;DHT22;1205;47.984;7.668;2022-10-01T12:15:11;14.10;99.90
2389;DHT22;1205;47.984;7.668;2022-10-01T12:18:00;14.20;99.90
2389;DHT22;1205;47.984;7.668;2022-10-01T12:20:43;14.10;99.90
2389;DHT22;1205;47.984;7.668;2022-10-01T12:23:20;14.10;99.90
2389;DHT22;1205;47.984;7.668;2022-10-01T12:28:38;14.10;99.90
2389;DHT22;1205;47.984;7.668;2022-10-01T12:31:07;14.20;99.90
2389;DHT22;1205;47.984;7.668;2022-10-01T12:36:32;14.20;99.90
2389;DHT22;1205;47.984;7.668;2022-10-01T12:44:37;14.30;99.90
2389;DHT22;1205;47.984;7.668;2022-10-01T12:52:48;14.30;99.90
2389;DHT22;1205;47.984;7.668;2022-10-01T13:00:33;14.40;99.90
2389;DHT22;1205;47.984;7.668;2022-10-01T13:10:46;14.40;99.90
2389;DHT22;1205;47.984;7.668;2022-10-01T13:13:27;14.50;99.90
2389;DHT22;1205;47.984;7.668;2022-10-01T13:18:53;14.40;99.90
2389;DHT22;1205;47.984;7.668;2022-10-01T13:24:17;14.60;99.90
2389;DHT22;1205;47.984;7.668;2022-10-01T13:29:30;14.50;99.90
2389;DHT22;1205;47.984;7.668;2022-10-01T13:32:22;14.50;99.90
2389;DHT22;1205;47.984;7.668;2022-10-01T13:34:50;14.40;99.90
2389;DHT22;1205;47.984;7.668;2022-10-01T13:39:55;14.50;99.90
2389;DHT22;1205;47.984;7.668;2022-10-01T13:42:21;14.40;99.90
2389;DHT22;1205;47.984;7.668;2022-10-01T13:45:04;14.50;99.90
2389;DHT22;1205;47.984;7.668;2022-10-01T13:47:32;14.50;99.90
2389;DHT22;1205;47.984;7.668;2022-10-01T13:50:04;14.40;99.90
2389;DHT22;1205;47.984;7.668;2022-10-01T13:52:31;14.50;99.90
2389;DHT22;1205;47.984;7.668;2022-10-01T13:54:58;14.50;99.90
2389;DHT22;1205;47.984;7.668;2022-10-01T13:57:36;14.50;99.90
2389;DHT22;1205;47.984;7.668;2022-10-01T14:02:42;14.50;99.90
2389;DHT22;1205;47.984;7.668;2022-10-01T14:05:35;14.50;99.90
2389;DHT22;1205;47.984;7.668;2022-10-01T14:08:20;14.60;99.90
2389;DHT22;1205;47.984;7.668;2022-10-01T14:10:55;14.60;99.90
2389;DHT22;1205;47.984;7.668;2022-10-01T14:13:48;14.50;99.90
2389;DHT22;1205;47.984;7.668;2022-10-01T14:16:45;14.50;99.90
2389;DHT22;1205;47.984;7.668;2022-10-01T14:19:19;14.50;99.90
2389;DHT22;1205;47.984;7.668;2022-10-01T14:22:00;14.40;99.90
2389;DHT22;1205;47.984;7.668;2022-10-01T14:27:46;14.50;99.90
2389;DHT22;1205;47.984;7.668;2022-10-01T14:35:35;14.40;99.90
2389;DHT22;1205;47.984;7.668;2022-10-01T14:38:23;14.40;99.90
2389;DHT22;1205;47.984;7.668;2022-10-01T14:40:49;14.50;99.90
2389;DHT22;1205;47.984;7.668;2022-10-01T14:43:24;14.60;99.90
2389;DHT22;1205;47.984;7.668;2022-10-01T14:48:20;14.60;99.90
2389;DHT22;1205;47.984;7.668;2022-10-01T14:50:50;14.60;99.90
2389;DHT22;1205;47.984;7.668;2022-10-01T14:53:23;14.60;99.90
2389;DHT22;1205;47.984;7.668;2022-10-01T14:55:52;14.70;99.90
2389;DHT22;1205;47.984;7.668;2022-10-01T15:01:02;14.70;99.90
2389;DHT22;1205;47.984;7.668;2022-10-01T15:03:40;14.80;99.90
2389;DHT22;1205;47.984;7.668;2022-10-01T15:06:13;14.80;99.90
2389;DHT22;1205;47.984;7.668;2022-10-01T15:08:46;14.80;99.90
2389;DHT22;1205;47.984;7.668;2022-10-01T15:13:44;14.80;99.90
2389;DHT22;1205;47.984;7.668;2022-10-01T15:16:17;14.90;99.90
2389;DHT22;1205;47.984;7.668;2022-10-01T15:18:52;14.90;99.90
2389;DHT22;1205;47.984;7.668;2022-10-01T15:21:23;14.90;99.90
2389;DHT22;1205;47.984;7.668;2022-10-01T15:23:50;14.90;99.90
2389;DHT22;1205;47.984;7.668;2022-10-01T15:26:22;14.90;99.90
2389;DHT22;1205;47.984;7.668;2022-10-01T15:29:04;15.00;99.90
2389;DHT22;1205;47.984;7.668;2022-10-01T15:31:31;15.00;99.90
2389;DHT22;1205;47.984;7.668;2022-10-01T15:33:59;14.90;99.90
2389;DHT22;1205;47.984;7.668;2022-10-01T15:36:26;14.90;99.90
2389;DHT22;1205;47.984;7.668;2022-10-01T15:38:52;15.00;99.90
2389;DHT22;1205;47.984;7.668;2022-10-01T15:41:26;15.00;99.90
2389;DHT22;1205;47.984;7.668;2022-10-01T15:43:57;15.00;99.90
2389;DHT22;1205;47.984;7.668;2022-10-01T15:46:24;15.00;99.90
2389;DHT22;1205;47.984;7.668;2022-10-01T15:49:16;15.10;99.90
2389;DHT22;1205;47.984;7.668;2022-10-01T15:54:30;15.10;99.90
2389;DHT22;1205;47.984;7.668;2022-10-01T15:56:55;15.10;99.90
2389;DHT22;1205;47.984;7.668;2022-10-01T15:59:21;15.10;99.90
2389;DHT22;1205;47.984;7.668;2022-10-01T16:01:47;15.10;99.90
2389;DHT22;1205;47.984;7.668;2022-10-01T16:04:13;15.10;99.90
2389;DHT22;1205;47.984;7.668;2022-10-01T16:06:43;15.10;99.90
2389;DHT22;1205;47.984;7.668;2022-10-01T16:09:23;15.10;99.90
2389;DHT22;1205;47.984;7.668;2022-10-01T16:11:57;15.10;99.90
2389;DHT22;1205;47.984;7.668;2022-10-01T16:19:44;15.00;99.90
2389;DHT22;1205;47.984;7.668;2022-10-01T16:28:01;15.00;99.90
2389;DHT22;1205;47.984;7.668;2022-10-01T16:30:28;15.00;99.90
2389;DHT22;1205;47.984;7.668;2022-10-01T16:32:59;14.90;99.90
2389;DHT22;1205;47.984;7.668;2022-10-01T16:35:31;14.90;99.90
2389;DHT22;1205;47.984;7.668;2022-10-01T16:38:00;14.90;99.90
2389;DHT22;1205;47.984;7.668;2022-10-01T16:40:28;14.90;99.90
2389;DHT22;1205;47.984;7.668;2022-10-01T16:42:54;14.90;99.90
2389;DHT22;1205;47.984;7.668;2022-10-01T16:45:23;14.90;99.90
2389;DHT22;1205;47.984;7.668;2022-10-01T16:47:50;14.90;99.90
2389;DHT22;1205;47.984;7.668;2022-10-01T16:50:18;14.90;99.90
2389;DHT22;1205;47.984;7.668;2022-10-01T16:52:44;14.90;99.90
2389;DHT22;1205;47.984;7.668;2022-10-01T16:55:20;14.90;99.90
2389;DHT22;1205;47.984;7.668;2022-10-01T16:57:47;14.90;99.90
2389;DHT22;1205;47.984;7.668;2022-10-01T17:00:17;14.90;99.90
2389;DHT22;1205;47.984;7.668;2022-10-01T17:02:44;14.90;99.90
2389;DHT22;1205;47.984;7.668;2022-10-01T17:07:48;14.80;99.90
2389;DHT22;1205;47.984;7.668;2022-10-01T17:10:15;14.80;99.90
2389;DHT22;1205;47.984;7.668;2022-10-01T17:12:41;14.80;99.90
2389;DHT22;1205;47.984;7.668;2022-10-01T17:15:11;14.70;99.90
2389;DHT22;1205;47.984;7.668;2022-10-01T17:17:38;14.60;99.90
2389;DHT22;1205;47.984;7.668;2022-10-01T17:20:04;14.60;99.90
2389;DHT22;1205;47.984;7.668;2022-10-01T17:22:30;14.50;99.90
2389;DHT22;1205;47.984;7.668;2022-10-01T17:24:56;14.50;99.90
2389;DHT22;1205;47.984;7.668;2022-10-01T17:27:21;14.40;99.90
2389;DHT22;1205;47.984;7.668;2022-10-01T17:29:47;14.40;99.90
2389;DHT22;1205;47.984;7.668;2022-10-01T17:32:13;14.40;99.90
2389;DHT22;1205;47.984;7.668;2022-10-01T17:34:43;14.30;99.90
2389;DHT22;1205;47.984;7.668;2022-10-01T17:37:09;14.30;99.90
2389;DHT22;1205;47.984;7.668;2022-10-01T17:39:35;14.30;99.90
2389;DHT22;1205;47.984;7.668;2022-10-01T17:42:01;14.20;99.90
2389;DHT22;1205;47.984;7.668;2022-10-01T17:44:27;14.30;99.90
2389;DHT22;1205;47.984;7.668;2022-10-01T17:46:52;14.20;99.90
2389;DHT22;1205;47.984;7.668;2022-10-01T17:49:18;14.20;99.90
2389;DHT22;1205;47.984;7.668;2022-10-01T17:51:43;14.20;99.90
2389;DHT22;1205;47.984;7.668;2022-10-01T17:54:09;14.20;99.90
2389;DHT22;1205;47.984;7.668;2022-10-01T17:56:34;14.20;99.90
2389;DHT22;1205;47.984;7.668;2022-10-01T17:59:00;14.20;99.90
2389;DHT22;1205;47.984;7.668;2022-10-01T18:01:26;14.20;99.90
2389;DHT22;1205;47.984;7.668;2022-10-01T18:03:55;14.20;99.90
2389;DHT22;1205;47.984;7.668;2022-10-01T18:06:21;14.20;99.90
2389;DHT22;1205;47.984;7.668;2022-10-01T18:08:47;14.10;99.90
2389;DHT22;1205;47.984;7.668;2022-10-01T18:11:13;14.20;99.90
2389;DHT22;1205;47.984;7.668;2022-10-01T18:13:39;14.10;99.90
2389;DHT22;1205;47.984;7.668;2022-10-01T18:16:08;14.10;99.90
2389;DHT22;1205;47.984;7.668;2022-10-01T18:18:34;14.10;99.90
2389;DHT22;1205;47.984;7.668;2022-10-01T18:21:11;14.10;99.90
2389;DHT22;1205;47.984;7.668;2022-10-01T18:23:41;14.10;99.90
2389;DHT22;1205;47.984;7.668;2022-10-01T18:26:08;14.10;99.90
2389;DHT22;1205;47.984;7.668;2022-10-01T18:28:34;14.10;99.90
2389;DHT22;1205;47.984;7.668;2022-10-01T18:33:55;14.20;99.90
2389;DHT22;1205;47.984;7.668;2022-10-01T18:36:41;14.10;99.90
2389;DHT22;1205;47.984;7.668;2022-10-01T18:39:22;14.20;99.90
2389;DHT22;1205;47.984;7.668;2022-10-01T18:41:51;14.20;99.90
2389;DHT22;1205;47.984;7.668;2022-10-01T18:44:18;14.20;99.90
2389;DHT22;1205;47.984;7.668;2022-10-01T18:49:52;14.20;99.90